Time;durP1;ratioP1;P1;durP2;ratioP2;P2;SDS_P1;SDS_P2;PMS_P1;PMS_P2;Temp;Humidity;BMP_temperature;BMP_pressure;BME280_temperature;BME280_humidity;BME280_pressure;Samples;Min_cycle;Max_cycle;Signal;HPM_P1;HPM_P2
2021/08/31 05:19:20;;;;;;;;;;;;;;;19.58;53.23;99686.66;5109657;27;1220;-60
2021/08/31 05:21:49;;;;;;;;;;;;;;;19.81;52.94;99690.88;5109469;28;821;-60
2021/08/31 05:24:16;;;;;;;;;;;;;;;20.04;52.34;99683.06;5109455;28;1239;-60
2021/08/31 05:26:43;;;;;;;;;;;;;;;20.23;51.79;99680.97;5109415;28;849;-60
2021/08/31 05:29:10;;;;;;;;;;;;;;;20.34;51.03;99673.63;5109360;28;833;-60
2021/08/31 05:31:36;;;;;;;;;;;;;;;20.48;51.16;99669.34;5109257;28;876;-60
2021/08/31 05:34:02;;;;;;;;;;;;;;;20.70;50.39;99674.75;5109253;28;833;-60
2021/08/31 05:36:29;;;;;;;;;;;;;;;20.98;50.02;99680.22;5109249;28;864;-60
2021/08/31 05:38:56;;;;;;;;;;;;;;;21.21;49.57;99673.84;5109032;28;1913;-60
2021/08/31 05:41:23;;;;;;;;;;;;;;;21.70;48.66;99677.38;5109169;28;829;-60
2021/08/31 05:43:49;;;;;;;;;;;;;;;22.27;47.49;99679.16;5109050;28;817;-60
2021/08/31 05:46:16;;;;;;;;;;;;;;;22.57;45.99;99676.31;5108887;28;814;-60
2021/08/31 05:48:42;;;;;;;;;;;;;;;23.00;45.32;99680.31;5107720;28;1352;-60
2021/08/31 05:51:11;;;;;;;;;;;;;;;23.72;43.93;99678.06;5108891;28;825;-60
2021/08/31 05:53:37;;;;;;;;;;;;;;;24.46;42.72;99683.91;5108819;28;857;-61
2021/08/31 05:56:04;;;;;;;;;;;;;;;25.15;41.90;99690.78;5108801;28;896;-60
2021/08/31 05:58:30;;;;;;;;;;;;;;;25.56;40.48;99681.97;5108693;28;2004;-60
2021/08/31 06:00:57;;;;;;;;;;;;;;;25.75;39.26;99685.13;5108709;28;996;-60
2021/08/31 06:03:24;;;;;;;;;;;;;;;26.02;39.34;99686.50;5108708;28;840;-61
2021/08/31 06:05:51;;;;;;;;;;;;;;;26.38;38.34;99698.09;5108639;28;817;-60
2021/08/31 06:08:17;;;;;;;;;;;;;;;26.79;37.65;99686.25;5108553;28;846;-60
2021/08/31 06:10:44;;;;;;;;;;;;;;;27.13;37.63;99692.59;5108561;28;814;-60
2021/08/31 06:13:10;;;;;;;;;;;;;;;27.33;37.21;99690.75;5108566;28;888;-60
2021/08/31 06:15:37;;;;;;;;;;;;;;;28.03;36.00;99685.75;5108358;28;798;-61
2021/08/31 06:18:03;;;;;;;;;;;;;;;29.00;34.36;99686.47;5108109;28;1921;-61
2021/08/31 06:20:30;;;;;;;;;;;;;;;29.59;33.55;99687.53;5108356;28;905;-61
2021/08/31 06:22:57;;;;;;;;;;;;;;;30.00;31.64;99680.78;5108307;28;904;-61
2021/08/31 06:25:23;;;;;;;;;;;;;;;29.98;31.07;99691.16;5108439;28;802;-61
2021/08/31 06:27:49;;;;;;;;;;;;;;;29.80;30.70;99687.03;5108288;28;908;-60
2021/08/31 06:30:16;;;;;;;;;;;;;;;29.90;31.43;99694.66;5097015;28;908;-61
2021/08/31 06:32:42;;;;;;;;;;;;;;;30.47;30.77;99696.63;5094656;28;805;-61
2021/08/31 06:35:09;;;;;;;;;;;;;;;30.83;29.68;99690.53;5094409;28;904;-61
2021/08/31 06:37:36;;;;;;;;;;;;;;;31.19;29.29;99684.44;5094439;28;1893;-61
2021/08/31 06:40:03;;;;;;;;;;;;;;;31.19;28.68;99693.75;5094727;28;833;-60
2021/08/31 06:42:30;;;;;;;;;;;;;;;31.06;28.86;99693.75;5094416;28;889;-61
2021/08/31 06:44:57;;;;;;;;;;;;;;;31.14;28.82;99686.09;5094142;28;873;-61
2021/08/31 06:47:23;;;;;;;;;;;;;;;31.47;28.55;99692.44;5094280;28;778;-61
2021/08/31 06:49:50;;;;;;;;;;;;;;;31.64;27.84;99697.78;5094262;28;873;-61
2021/08/31 06:52:16;;;;;;;;;;;;;;;31.70;27.75;99687.75;5094164;28;841;-61
2021/08/31 06:54:42;;;;;;;;;;;;;;;32.09;27.45;99689.00;5094224;28;881;-61
2021/08/31 06:57:10;;;;;;;;;;;;;;;32.04;27.40;99689.88;5093977;28;1878;-61
2021/08/31 06:59:36;;;;;;;;;;;;;;;31.82;27.54;99691.16;5094093;28;881;-61
2021/08/31 07:02:03;;;;;;;;;;;;;;;31.91;27.13;99693.53;5093995;28;810;-61
2021/08/31 07:04:30;;;;;;;;;;;;;;;32.24;27.03;99693.28;5094015;28;838;-61
2021/08/31 07:06:56;;;;;;;;;;;;;;;32.50;26.57;99689.53;5094151;28;833;-61
2021/08/31 07:09:23;;;;;;;;;;;;;;;32.49;26.48;99693.72;5093900;28;806;-61
2021/08/31 07:11:50;;;;;;;;;;;;;;;32.73;26.29;99690.50;5092562;28;1564;-61
2021/08/31 07:14:16;;;;;;;;;;;;;;;32.96;25.85;99696.38;5093684;28;801;-61
2021/08/31 07:16:43;;;;;;;;;;;;;;;32.69;25.41;99687.25;5093793;28;797;-61
2021/08/31 07:19:10;;;;;;;;;;;;;;;32.08;26.17;99696.00;5093428;28;1909;-61
2021/08/31 07:21:37;;;;;;;;;;;;;;;32.01;26.42;99688.13;5093614;28;839;-61
2021/08/31 07:24:04;;;;;;;;;;;;;;;32.05;27.14;99685.72;5093678;28;912;-61
2021/08/31 07:26:29;;;;;;;;;;;;;;;32.39;26.87;99686.94;5093489;28;841;-61
2021/08/31 07:28:56;;;;;;;;;;;;;;;32.27;27.01;99695.06;5093443;28;802;-61
2021/08/31 07:31:23;;;;;;;;;;;;;;;32.64;26.87;99682.41;5092206;28;904;-61
2021/08/31 07:33:49;;;;;;;;;;;;;;;32.78;25.62;99685.97;5093448;28;883;-61
2021/08/31 07:36:21;;;;;;;;;;;;;;;32.58;25.95;99684.66;5093401;28;826;-61
2021/08/31 07:38:47;;;;;;;;;;;;;;;32.71;26.05;99683.81;5093355;28;1893;-61
2021/08/31 07:41:14;;;;;;;;;;;;;;;33.00;26.33;99687.44;5092441;28;861;-61
2021/08/31 07:43:41;;;;;;;;;;;;;;;33.44;25.87;99684.66;5093034;28;885;-61
2021/08/31 07:46:08;;;;;;;;;;;;;;;33.87;25.38;99694.56;5093167;28;916;-61
2021/08/31 07:48:34;;;;;;;;;;;;;;;33.76;25.04;99677.72;5093054;28;968;-61
2021/08/31 07:51:01;;;;;;;;;;;;;;;33.33;25.25;99677.16;5093006;28;909;-61
2021/08/31 07:53:28;;;;;;;;;;;;;;;33.06;26.07;99676.59;5093074;28;818;-61
2021/08/31 07:55:54;;;;;;;;;;;;;;;33.29;26.16;99670.25;5092956;28;846;-61
2021/08/31 07:58:21;;;;;;;;;;;;;;;33.40;25.66;99667.06;5092761;28;1885;-61
2021/08/31 08:00:48;;;;;;;;;;;;;;;33.30;25.66;99666.81;5092967;28;837;-61
2021/08/31 08:03:15;;;;;;;;;;;;;;;33.34;26.35;99660.72;5092808;28;995;-61
2021/08/31 08:05:41;;;;;;;;;;;;;;;33.61;26.02;99660.47;5092755;28;818;-61
2021/08/31 08:08:08;;;;;;;;;;;;;;;33.90;26.15;99656.16;5092794;28;813;-62
2021/08/31 08:10:35;;;;;;;;;;;;;;;34.08;25.37;99657.13;5092724;28;837;-62
2021/08/31 08:13:01;;;;;;;;;;;;;;;34.00;25.68;99650.63;5092607;28;822;-62
2021/08/31 08:15:28;;;;;;;;;;;;;;;34.11;25.39;99649.50;5092654;28;821;-62
2021/08/31 08:17:54;;;;;;;;;;;;;;;34.08;25.17;99648.53;5092340;28;1968;-62
2021/08/31 08:20:21;;;;;;;;;;;;;;;33.96;25.66;99641.63;5092688;28;810;-62
2021/08/31 08:22:47;;;;;;;;;;;;;;;33.50;26.01;99644.34;5092888;28;811;-62
2021/08/31 08:25:14;;;;;;;;;;;;;;;33.27;26.85;99650.03;5093127;28;825;-62
2021/08/31 08:27:41;;;;;;;;;;;;;;;33.43;26.49;99645.88;5092662;28;889;-62
2021/08/31 08:30:08;;;;;;;;;;;;;;;33.70;26.27;99639.88;5092768;28;770;-62
2021/08/31 08:32:35;;;;;;;;;;;;;;;33.86;25.84;99635.69;5093094;28;787;-62
2021/08/31 08:35:03;;;;;;;;;;;;;;;33.60;25.75;99627.44;5092511;28;778;-62
2021/08/31 08:37:30;;;;;;;;;;;;;;;33.45;26.35;99623.16;5092351;28;1945;-61
2021/08/31 08:39:57;;;;;;;;;;;;;;;33.42;26.06;99630.03;5092792;28;845;-62
2021/08/31 08:42:23;;;;;;;;;;;;;;;32.96;26.43;99632.66;5092517;28;798;-62
2021/08/31 08:44:50;;;;;;;;;;;;;;;32.88;27.32;99620.38;5092474;28;873;-62
2021/08/31 08:47:17;;;;;;;;;;;;;;;33.13;26.79;99635.06;5092432;28;818;-62
2021/08/31 08:49:45;;;;;;;;;;;;;;;33.27;26.77;99618.53;5092012;28;806;-62
2021/08/31 08:52:12;;;;;;;;;;;;;;;33.10;26.78;99619.03;5091952;28;870;-62
2021/08/31 08:54:40;;;;;;;;;;;;;;;33.29;25.50;99608.03;5092471;28;782;-62
2021/08/31 08:57:06;;;;;;;;;;;;;;;33.29;25.03;99610.88;5092078;28;1881;-62
2021/08/31 08:59:31;;;;;;;;;;;;;;;33.20;23.93;99604.91;5092066;28;976;-64
2021/08/31 09:01:58;;;;;;;;;;;;;;;32.11;27.39;99605.53;5091837;28;961;-62
2021/08/31 09:04:45;;;;;;;;;;;;;;;32.33;27.44;99601.34;5091829;28;953;-62
2021/08/31 09:07:19;;;;;;;;;;;;;;;32.50;27.24;99609.47;5091739;28;908;-62
2021/08/31 09:09:48;;;;;;;;;;;;;;;32.39;27.56;99599.09;5091790;28;924;-62
2021/08/31 09:12:31;;;;;;;;;;;;;;;32.40;27.71;99597.00;5091652;28;826;-62
2021/08/31 09:15:20;;;;;;;;;;;;;;;32.71;26.54;99589.38;5091976;28;806;-62
2021/08/31 09:18:06;;;;;;;;;;;;;;;32.79;24.96;99598.03;5091280;28;1965;-62
2021/08/31 09:20:33;;;;;;;;;;;;;;;32.54;25.40;99584.16;5091942;28;810;-63
2021/08/31 09:23:00;;;;;;;;;;;;;;;32.00;25.40;99585.81;5092402;28;833;-62
2021/08/31 09:25:53;;;;;;;;;;;;;;;31.56;25.77;99588.38;5092128;28;841;-62
2021/08/31 09:28:19;;;;;;;;;;;;;;;30.83;27.04;99585.78;5088150;28;1287;-62
2021/08/31 09:30:45;;;;;;;;;;;;;;;31.04;27.10;99579.41;5091535;28;855;-62
2021/08/31 09:33:14;;;;;;;;;;;;;;;31.47;26.83;99573.28;5091620;28;880;-62
2021/08/31 09:35:44;;;;;;;;;;;;;;;31.64;25.36;99574.97;5091465;28;806;-64
2021/08/31 09:38:14;;;;;;;;;;;;;;;31.56;26.05;99574.91;5091413;28;1918;-62
2021/08/31 09:40:42;;;;;;;;;;;;;;;31.53;25.75;99571.03;5091458;28;969;-63
2021/08/31 09:43:12;;;;;;;;;;;;;;;31.65;25.98;99576.50;5091333;28;977;-62
2021/08/31 09:45:40;;;;;;;;;;;;;;;31.76;25.95;99566.91;5091435;28;865;-62
2021/08/31 09:48:08;;;;;;;;;;;;;;;31.98;25.56;99562.69;5091496;28;826;-62
2021/08/31 09:50:36;;;;;;;;;;;;;;;31.88;26.02;99557.50;5091321;28;871;-61
2021/08/31 09:53:13;;;;;;;;;;;;;;;32.59;24.98;99566.06;5091316;28;893;-64
2021/08/31 09:55:41;;;;;;;;;;;;;;;32.88;24.03;99566.81;5091317;28;1034;-62
2021/08/31 09:58:09;;;;;;;;;;;;;;;33.15;23.46;99563.69;5091229;28;1886;-62
2021/08/31 10:00:37;;;;;;;;;;;;;;;33.73;22.85;99564.97;5091346;28;809;-63
2021/08/31 10:03:04;;;;;;;;;;;;;;;33.57;23.00;99557.69;5091308;28;833;-62
2021/08/31 10:05:35;;;;;;;;;;;;;;;33.21;23.19;99552.06;5093809;28;838;-62
2021/08/31 10:08:02;;;;;;;;;;;;;;;32.35;24.15;99547.22;5094975;28;1036;-62
2021/08/31 10:10:30;;;;;;;;;;;;;;;31.85;25.28;99538.59;5095302;28;877;-62
2021/08/31 10:12:57;;;;;;;;;;;;;;;32.57;24.42;99542.97;5094869;28;790;-62
2021/08/31 10:15:23;;;;;;;;;;;;;;;33.18;23.89;99542.53;5094864;28;850;-62
2021/08/31 10:17:50;;;;;;;;;;;;;;;33.20;23.46;99542.69;5093256;28;1984;-62
2021/08/31 10:20:19;;;;;;;;;;;;;;;32.45;23.77;99536.75;5094729;28;842;-62
2021/08/31 10:22:46;;;;;;;;;;;;;;;32.37;24.63;99526.59;5094771;28;798;-62
2021/08/31 10:25:13;;;;;;;;;;;;;;;32.88;23.15;99531.66;5094989;28;841;-63
2021/08/31 10:27:41;;;;;;;;;;;;;;;33.07;22.62;99532.16;5094654;28;875;-62
2021/08/31 10:30:13;;;;;;;;;;;;;;;33.04;23.24;99535.38;5094574;28;814;-63
2021/08/31 10:32:39;;;;;;;;;;;;;;;33.19;23.20;99531.81;5094824;28;802;-62
2021/08/31 10:35:07;;;;;;;;;;;;;;;33.44;22.79;99529.22;5094753;28;869;-63
2021/08/31 10:37:47;;;;;;;;;;;;;;;33.65;22.17;99537.66;5093336;28;1893;-62
2021/08/31 10:40:49;;;;;;;;;;;;;;;33.85;21.72;99521.63;5094492;28;826;-63
2021/08/31 10:43:16;;;;;;;;;;;;;;;32.85;22.79;99525.00;5051947;28;1358;-62
2021/08/31 10:45:44;;;;;;;;;;;;;;;31.79;23.94;99534.34;5051861;28;1325;-62
2021/08/31 10:48:22;;;;;;;;;;;;;;;31.05;25.14;99527.50;5051944;28;877;-62
2021/08/31 10:51:05;;;;;;;;;;;;;;;31.74;25.01;99521.75;5051865;28;890;-62
2021/08/31 10:53:43;;;;;;;;;;;;;;;32.50;23.93;99523.66;5035185;28;1390;-65
2021/08/31 10:58:51;;;;;;;;;;;;;;;32.59;23.62;99520.28;5051653;28;1890;-64
2021/08/31 11:01:19;;;;;;;;;;;;;;;32.98;23.34;99518.34;5034917;28;861;-62
2021/08/31 11:03:45;;;;;;;;;;;;;;;33.41;23.42;99511.03;5051633;28;915;-63
2021/08/31 11:06:16;;;;;;;;;;;;;;;33.81;23.19;99521.25;5051550;28;802;-63
2021/08/31 11:08:42;;;;;;;;;;;;;;;33.89;22.39;99510.56;5052040;28;873;-63
2021/08/31 11:11:18;;;;;;;;;;;;;;;33.94;22.59;99507.47;5051621;28;946;-63
2021/08/31 11:13:54;;;;;;;;;;;;;;;34.16;21.82;99511.69;5051442;28;889;-64
2021/08/31 11:16:29;;;;;;;;;;;;;;;33.92;21.89;99507.28;5057465;28;913;-65
2021/08/31 11:18:55;;;;;;;;;;;;;;;33.52;22.69;99510.69;5093389;28;1975;-63
2021/08/31 11:21:22;;;;;;;;;;;;;;;33.11;23.52;99500.31;5093760;28;821;-63
2021/08/31 11:23:49;;;;;;;;;;;;;;;32.12;24.58;99502.06;5093863;28;869;-63
2021/08/31 11:26:24;;;;;;;;;;;;;;;31.37;25.06;99502.88;5093817;28;810;-63
2021/08/31 11:28:50;;;;;;;;;;;;;;;31.04;26.30;99494.53;5301486;22;2278;-63
2021/08/31 11:31:24;;;;;;;;;;;;;;;32.23;25.60;99491.66;5033651;28;826;-62
2021/08/31 11:33:53;;;;;;;;;;;;;;;33.52;23.72;99493.50;5033595;28;885;-63
2021/08/31 11:36:21;;;;;;;;;;;;;;;34.19;22.08;99483.97;5033192;28;885;-64
2021/08/31 11:38:57;;;;;;;;;;;;;;;33.75;21.93;99481.31;5033091;28;1910;-63
2021/08/31 11:41:28;;;;;;;;;;;;;;;33.18;23.14;99487.34;5033363;28;775;-63
2021/08/31 11:44:16;;;;;;;;;;;;;;;32.51;24.04;99480.16;5033086;28;818;-63
2021/08/31 11:46:56;;;;;;;;;;;;;;;32.62;23.92;99473.38;5027442;28;1909;-63
2021/08/31 11:49:24;;;;;;;;;;;;;;;33.33;23.38;99481.66;5032903;28;807;-63
2021/08/31 11:52:15;;;;;;;;;;;;;;;34.28;22.21;99476.88;5033225;28;786;-64
2021/08/31 11:54:54;;;;;;;;;;;;;;;33.56;23.08;99476.72;5033435;28;850;-63
2021/08/31 11:57:27;;;;;;;;;;;;;;;33.80;22.71;99468.91;5032766;28;1965;-63
2021/08/31 11:59:54;;;;;;;;;;;;;;;34.50;22.08;99469.53;5032699;28;783;-63
2021/08/31 12:02:38;;;;;;;;;;;;;;;35.40;20.83;99463.19;5032706;28;861;-63
2021/08/31 12:05:06;;;;;;;;;;;;;;;36.15;20.02;99456.63;5032657;28;830;-63
2021/08/31 12:07:49;;;;;;;;;;;;;;;36.65;20.35;99455.69;5032589;28;941;-63
2021/08/31 12:10:24;;;;;;;;;;;;;;;36.92;19.38;99452.84;5032571;28;890;-64
2021/08/31 12:12:52;;;;;;;;;;;;;;;36.78;18.89;99452.44;5032837;28;885;-64
2021/08/31 12:15:23;;;;;;;;;;;;;;;36.55;18.95;99461.34;5032439;28;846;-63
2021/08/31 12:17:59;;;;;;;;;;;;;;;36.31;19.47;99440.69;5032526;28;1893;-63
2021/08/31 12:20:25;;;;;;;;;;;;;;;36.77;19.31;99445.91;5032400;28;850;-63
2021/08/31 12:22:56;;;;;;;;;;;;;;;36.71;18.84;99448.31;5032319;28;955;-64
2021/08/31 12:25:22;;;;;;;;;;;;;;;36.51;18.87;99452.34;5032310;28;806;-64
2021/08/31 12:27:50;;;;;;;;;;;;;;;36.51;19.07;99453.16;5032026;28;815;-63
2021/08/31 12:30:18;;;;;;;;;;;;;;;35.21;20.56;99451.44;5031961;28;1309;-64
2021/08/31 12:32:55;;;;;;;;;;;;;;;33.95;21.43;99453.81;5032233;28;799;-63
2021/08/31 12:35:26;;;;;;;;;;;;;;;33.93;22.16;99442.91;5014384;28;1401;-63
2021/08/31 12:38:11;;;;;;;;;;;;;;;34.74;21.55;99439.44;5032046;28;1985;-64
2021/08/31 12:40:58;;;;;;;;;;;;;;;35.54;20.75;99449.28;5032158;28;913;-63
2021/08/31 12:43:26;;;;;;;;;;;;;;;34.69;21.34;99443.28;5032010;28;985;-63
2021/08/31 12:45:54;;;;;;;;;;;;;;;33.53;22.52;99434.13;5031929;28;827;-64
2021/08/31 12:48:43;;;;;;;;;;;;;;;32.57;23.09;99439.25;5031936;28;803;-63
2021/08/31 12:51:09;;;;;;;;;;;;;;;32.07;23.96;99436.47;5031907;28;803;-63
2021/08/31 12:53:46;;;;;;;;;;;;;;;32.03;24.18;99436.06;5031796;28;889;-63
2021/08/31 12:56:14;;;;;;;;;;;;;;;33.37;23.47;99427.59;5031817;28;815;-63
2021/08/31 12:58:43;;;;;;;;;;;;;;;34.76;22.32;99426.03;5031889;28;1981;-63
2021/08/31 13:01:16;;;;;;;;;;;;;;;36.17;20.64;99425.16;5031686;28;822;-63
2021/08/31 13:03:44;;;;;;;;;;;;;;;36.82;19.74;99421.09;5031737;28;881;-64
2021/08/31 13:06:29;;;;;;;;;;;;;;;36.57;19.67;99424.09;5031736;28;834;-61
2021/08/31 13:08:55;;;;;;;;;;;;;;;36.31;19.84;99426.31;5031655;28;889;-63
2021/08/31 13:11:22;;;;;;;;;;;;;;;36.37;19.92;99418.19;5031722;28;834;-63
2021/08/31 13:13:49;;;;;;;;;;;;;;;36.37;19.92;99414.56;5031696;28;870;-63
2021/08/31 13:16:16;;;;;;;;;;;;;;;36.62;19.50;99414.47;5031790;28;826;-63
2021/08/31 13:18:42;;;;;;;;;;;;;;;37.04;19.03;99421.34;5031769;28;1894;-61
2021/08/31 13:21:08;;;;;;;;;;;;;;;37.08;19.40;99422.44;5032075;28;847;-63
2021/08/31 13:23:35;;;;;;;;;;;;;;;36.84;19.64;99421.25;5031585;28;829;-63
2021/08/31 13:26:01;;;;;;;;;;;;;;;36.11;19.41;99416.75;5031512;28;838;-63
2021/08/31 13:28:27;;;;;;;;;;;;;;;35.83;20.38;99411.47;5031669;28;1050;-63
2021/08/31 13:30:53;;;;;;;;;;;;;;;36.07;20.43;99410.66;5031215;28;1227;-64
2021/08/31 13:33:20;;;;;;;;;;;;;;;35.91;19.70;99415.03;5031403;28;826;-63
2021/08/31 13:35:46;;;;;;;;;;;;;;;35.54;19.62;99415.56;5031466;28;802;-63
2021/08/31 13:38:13;;;;;;;;;;;;;;;35.62;20.07;99424.13;5031493;28;1914;-64
2021/08/31 13:40:39;;;;;;;;;;;;;;;35.46;22.92;99425.59;5034380;28;826;-63
2021/08/31 13:43:07;;;;;;;;;;;;;;;34.50;24.55;99420.78;5035443;28;873;-63
2021/08/31 13:45:33;;;;;;;;;;;;;;;33.43;26.08;99421.69;5035281;28;815;-63
2021/08/31 13:47:59;;;;;;;;;;;;;;;32.45;27.77;99424.47;5035263;28;921;-62
2021/08/31 13:50:26;;;;;;;;;;;;;;;32.49;28.13;99428.50;5035211;28;861;-63
2021/08/31 13:52:52;;;;;;;;;;;;;;;32.74;27.62;99423.09;5035196;28;866;-62
2021/08/31 13:55:19;;;;;;;;;;;;;;;32.44;28.26;99420.09;5035132;28;901;-62
2021/08/31 13:57:45;;;;;;;;;;;;;;;31.61;28.85;99421.84;5034951;28;1957;-63
2021/08/31 14:00:12;;;;;;;;;;;;;;;30.97;30.27;99421.06;5034949;28;775;-62
2021/08/31 14:02:39;;;;;;;;;;;;;;;30.55;30.94;99423.78;5035009;28;803;-62
2021/08/31 14:05:05;;;;;;;;;;;;;;;30.36;31.59;99426.00;5035193;28;802;-62
2021/08/31 14:07:32;;;;;;;;;;;;;;;30.18;31.76;99430.50;5035176;28;832;-61
2021/08/31 14:09:58;;;;;;;;;;;;;;;29.91;32.10;99428.44;5034878;28;865;-61
2021/08/31 14:12:25;;;;;;;;;;;;;;;30.03;32.12;99426.09;5034839;28;814;-62
2021/08/31 14:14:51;;;;;;;;;;;;;;;30.87;30.94;99423.59;5034897;28;791;-62
2021/08/31 14:17:18;;;;;;;;;;;;;;;30.95;30.76;99418.00;5016862;28;1893;-62
2021/08/31 14:19:45;;;;;;;;;;;;;;;30.57;31.41;99418.28;5034712;28;846;-62
2021/08/31 14:22:11;;;;;;;;;;;;;;;30.08;32.11;99415.91;5034565;28;925;-61
2021/08/31 14:24:38;;;;;;;;;;;;;;;29.73;33.19;99417.88;5034636;28;834;-62
2021/08/31 14:27:05;;;;;;;;;;;;;;;29.71;33.56;99409.88;5034459;28;842;-62
2021/08/31 14:29:31;;;;;;;;;;;;;;;30.37;32.75;99411.22;5034399;28;1381;-61
2021/08/31 14:31:58;;;;;;;;;;;;;;;30.89;30.88;99403.84;5034446;28;807;-61
2021/08/31 14:34:25;;;;;;;;;;;;;;;31.28;29.70;99399.28;5034458;28;827;-62
2021/08/31 14:36:51;;;;;;;;;;;;;;;31.42;30.03;99404.91;5034319;28;893;-62
2021/08/31 14:39:18;;;;;;;;;;;;;;;31.20;30.11;99404.16;5016418;28;2512;-62
2021/08/31 14:41:45;;;;;;;;;;;;;;;31.32;29.96;99401.78;5016432;28;1509;-62
2021/08/31 14:44:12;;;;;;;;;;;;;;;31.34;30.64;99405.63;5034244;28;799;-61
2021/08/31 14:46:41;;;;;;;;;;;;;;;30.91;31.50;99409.00;5034254;28;890;-62
2021/08/31 14:49:08;;;;;;;;;;;;;;;30.10;32.58;99416.13;5034190;28;826;-62
2021/08/31 14:51:33;;;;;;;;;;;;;;;29.20;34.63;99406.34;5033598;28;850;-62
2021/08/31 14:54:00;;;;;;;;;;;;;;;28.55;35.59;99405.47;5033975;28;854;-62
2021/08/31 14:56:26;;;;;;;;;;;;;;;28.16;36.74;99403.88;5033914;28;853;-62
2021/08/31 14:58:53;;;;;;;;;;;;;;;27.98;37.25;99413.91;5033926;28;1882;-62
2021/08/31 15:01:20;;;;;;;;;;;;;;;27.82;37.12;99412.75;5033940;28;839;-62
2021/08/31 15:03:47;;;;;;;;;;;;;;;27.78;37.87;99417.94;5033786;28;862;-62
2021/08/31 15:06:13;;;;;;;;;;;;;;;27.75;38.08;99419.03;5033795;28;871;-62
2021/08/31 15:08:40;;;;;;;;;;;;;;;27.73;37.83;99421.63;5033805;28;814;-62
2021/08/31 15:11:07;;;;;;;;;;;;;;;27.61;37.83;99423.78;5033706;28;850;-62
2021/08/31 15:13:34;;;;;;;;;;;;;;;27.37;37.97;99425.28;5033791;28;819;-61
2021/08/31 15:16:00;;;;;;;;;;;;;;;27.16;38.55;99419.25;5033687;28;866;-61
2021/08/31 15:18:26;;;;;;;;;;;;;;;27.05;38.74;99417.25;5033577;28;1902;-61
2021/08/31 15:20:53;;;;;;;;;;;;;;;27.15;38.37;99414.88;5033558;28;822;-61
2021/08/31 15:23:20;;;;;;;;;;;;;;;27.61;38.06;99421.75;5033784;28;822;-61
2021/08/31 15:25:46;;;;;;;;;;;;;;;27.69;38.02;99422.66;5033708;28;942;-61
2021/08/31 15:28:13;;;;;;;;;;;;;;;27.42;38.08;99426.56;5033507;28;1049;-61
2021/08/31 15:30:40;;;;;;;;;;;;;;;27.24;38.64;99423.06;5033333;28;1434;-61
2021/08/31 15:33:06;;;;;;;;;;;;;;;27.25;38.98;99423.84;5033497;28;874;-60
2021/08/31 15:35:33;;;;;;;;;;;;;;;27.23;39.62;99432.88;5033539;28;857;-61
2021/08/31 15:38:00;;;;;;;;;;;;;;;27.11;39.69;99427.81;5033447;28;1973;-60
2021/08/31 15:40:26;;;;;;;;;;;;;;;27.03;40.24;99434.03;5033559;28;884;-61
2021/08/31 15:42:53;;;;;;;;;;;;;;;27.04;40.12;99432.75;5015445;28;1303;-61
2021/08/31 15:45:21;;;;;;;;;;;;;;;27.04;40.43;99435.56;5033737;28;833;-61
2021/08/31 15:47:47;;;;;;;;;;;;;;;26.99;40.83;99430.72;5033386;28;838;-61
2021/08/31 15:50:14;;;;;;;;;;;;;;;26.84;41.27;99438.78;5033191;28;826;-60
2021/08/31 15:52:41;;;;;;;;;;;;;;;26.56;41.95;99439.72;5033646;28;853;-61
2021/08/31 15:55:08;;;;;;;;;;;;;;;26.33;42.51;99441.88;5032888;28;823;-61
2021/08/31 15:57:35;;;;;;;;;;;;;;;26.17;42.93;99442.69;5033228;28;1914;-61
2021/08/31 16:00:02;;;;;;;;;;;;;;;26.14;43.42;99441.66;5015118;28;1201;-61
2021/08/31 16:02:29;;;;;;;;;;;;;;;26.13;43.64;99445.00;5032396;28;869;-60
2021/08/31 16:04:56;;;;;;;;;;;;;;;26.06;44.00;99449.16;5032839;28;866;-61
2021/08/31 16:07:23;;;;;;;;;;;;;;;25.97;44.50;99452.28;5033223;28;830;-61
2021/08/31 16:09:49;;;;;;;;;;;;;;;25.84;45.28;99452.78;5032564;28;818;-61
2021/08/31 16:12:16;;;;;;;;;;;;;;;25.66;45.42;99457.66;5032572;28;811;-61
2021/08/31 16:14:43;;;;;;;;;;;;;;;25.43;45.75;99454.09;5032659;28;832;-61
2021/08/31 16:17:10;;;;;;;;;;;;;;;25.26;46.11;99447.66;5032454;28;811;-61
2021/08/31 16:19:36;;;;;;;;;;;;;;;25.04;46.60;99451.97;5032423;28;1890;-61
2021/08/31 16:22:03;;;;;;;;;;;;;;;24.84;47.28;99452.19;5032386;28;803;-60
2021/08/31 16:24:30;;;;;;;;;;;;;;;24.59;47.79;99451.84;5032258;28;835;-61
2021/08/31 16:26:55;;;;;;;;;;;;;;;24.34;48.53;99459.16;5032246;28;819;-60
2021/08/31 16:29:22;;;;;;;;;;;;;;;24.12;49.33;99473.19;5032147;28;1195;-61
2021/08/31 16:31:48;;;;;;;;;;;;;;;23.92;49.76;99468.44;5032204;28;885;-61
2021/08/31 16:34:15;;;;;;;;;;;;;;;23.73;50.25;99468.81;5032174;28;818;-61
2021/08/31 16:36:42;;;;;;;;;;;;;;;23.54;50.91;99468.41;5032117;28;874;-61
2021/08/31 16:39:09;;;;;;;;;;;;;;;23.37;51.74;99475.94;5031989;28;1910;-61
2021/08/31 16:41:35;;;;;;;;;;;;;;;23.19;51.97;99477.03;5032300;28;851;-61
2021/08/31 16:44:02;;;;;;;;;;;;;;;23.03;52.31;99482.03;5031940;28;839;-60
2021/08/31 16:46:29;;;;;;;;;;;;;;;22.86;53.06;99483.09;5032048;28;815;-60
2021/08/31 16:48:55;;;;;;;;;;;;;;;22.58;53.60;99492.75;5031907;28;894;-61
2021/08/31 16:51:22;;;;;;;;;;;;;;;22.48;54.23;99493.41;5031878;28;819;-60
2021/08/31 16:53:49;;;;;;;;;;;;;;;22.42;54.47;99498.94;5031739;28;811;-60
2021/08/31 16:56:15;;;;;;;;;;;;;;;22.37;54.71;99494.78;5032110;28;869;-60
2021/08/31 16:58:42;;;;;;;;;;;;;;;22.11;55.56;99499.53;5031788;28;1926;-60
2021/08/31 17:01:09;;;;;;;;;;;;;;;21.83;56.18;99502.69;5031718;28;850;-60
2021/08/31 17:03:36;;;;;;;;;;;;;;;21.53;56.86;99502.72;5031694;28;1039;-60
2021/08/31 17:06:02;;;;;;;;;;;;;;;21.35;57.43;99514.13;5031675;28;815;-60
2021/08/31 17:08:29;;;;;;;;;;;;;;;21.17;58.17;99520.72;5031720;28;818;-60
2021/08/31 17:10:56;;;;;;;;;;;;;;;20.96;58.73;99526.19;5031645;28;901;-60
2021/08/31 17:13:23;;;;;;;;;;;;;;;20.78;59.73;99523.50;5031498;28;885;-60
2021/08/31 17:15:50;;;;;;;;;;;;;;;20.64;60.23;99527.06;5031519;28;798;-60
2021/08/31 17:18:18;;;;;;;;;;;;;;;20.55;60.35;99530.69;5031546;28;1890;-60
2021/08/31 17:20:45;;;;;;;;;;;;;;;20.47;60.55;99526.69;5031492;28;834;-60
2021/08/31 17:23:12;;;;;;;;;;;;;;;20.36;60.67;99530.78;5031509;28;889;-60
2021/08/31 17:25:39;;;;;;;;;;;;;;;20.29;60.86;99535.97;5031463;28;893;-60
2021/08/31 17:28:06;;;;;;;;;;;;;;;20.17;61.03;99541.34;5031497;28;992;-60
2021/08/31 17:30:33;;;;;;;;;;;;;;;20.09;61.42;99548.53;5031280;28;1443;-60
2021/08/31 17:32:59;;;;;;;;;;;;;;;19.98;61.77;99551.09;5031387;28;897;-60
2021/08/31 17:35:26;;;;;;;;;;;;;;;19.90;61.93;99556.25;5031728;28;815;-60
2021/08/31 17:37:53;;;;;;;;;;;;;;;19.83;62.08;99553.78;5031358;28;1984;-60
2021/08/31 17:40:19;;;;;;;;;;;;;;;19.72;62.40;99553.53;5031393;28;787;-60
2021/08/31 17:42:47;;;;;;;;;;;;;;;19.61;62.68;99556.78;5031334;28;895;-60
2021/08/31 17:45:13;;;;;;;;;;;;;;;19.54;62.94;99562.72;5031476;28;878;-60
2021/08/31 17:47:40;;;;;;;;;;;;;;;19.50;63.12;99562.88;5031274;28;823;-60
2021/08/31 17:50:06;;;;;;;;;;;;;;;19.47;63.20;99565.84;5031281;28;794;-60
2021/08/31 17:52:35;;;;;;;;;;;;;;;19.42;63.60;99575.66;5031191;28;886;-60
2021/08/31 17:55:08;;;;;;;;;;;;;;;19.41;63.68;99571.28;5031175;28;842;-60
2021/08/31 17:57:35;;;;;;;;;;;;;;;19.37;63.81;99577.06;5031171;28;1961;-60
2021/08/31 18:00:01;;;;;;;;;;;;;;;19.34;63.84;99578.00;5031127;28;897;-60
2021/08/31 18:02:28;;;;;;;;;;;;;;;19.29;64.13;99573.03;5031149;28;846;-60
2021/08/31 18:04:54;;;;;;;;;;;;;;;19.22;64.30;99584.53;5031423;28;799;-60
2021/08/31 18:07:21;;;;;;;;;;;;;;;19.22;64.27;99575.34;5031173;28;862;-60
2021/08/31 18:09:48;;;;;;;;;;;;;;;19.23;64.14;99582.53;5031090;28;873;-60
2021/08/31 18:12:14;;;;;;;;;;;;;;;19.24;63.90;99573.63;5031050;28;806;-60
2021/08/31 18:14:41;;;;;;;;;;;;;;;19.24;63.61;99581.28;5031097;28;807;-60
2021/08/31 18:17:08;;;;;;;;;;;;;;;19.18;63.49;99579.09;5031031;28;869;-60
2021/08/31 18:19:34;;;;;;;;;;;;;;;19.13;63.33;99578.94;5030967;28;1882;-60
2021/08/31 18:22:00;;;;;;;;;;;;;;;19.09;63.21;99589.53;5030865;28;834;-60
2021/08/31 18:24:27;;;;;;;;;;;;;;;19.07;62.87;99581.56;5031041;28;858;-60
2021/08/31 18:26:54;;;;;;;;;;;;;;;19.06;62.54;99579.25;5034012;28;819;-60
2021/08/31 18:29:20;;;;;;;;;;;;;;;19.04;62.37;99584.56;5034577;28;1377;-60
2021/08/31 18:31:47;;;;;;;;;;;;;;;19.01;62.08;99586.25;5034381;28;926;-60